sensor_id;sensor_type;location;lat;lon;timestamp;temperature;humidity
15131;DHT22;7666;50.920;4.628;2024-03-25T00:00:46;5.10;99.90
15131;DHT22;7666;50.920;4.628;2024-03-25T00:03:32;5.10;99.90
15131;DHT22;7666;50.920;4.628;2024-03-25T00:06:18;5.00;99.90
15131;DHT22;7666;50.920;4.628;2024-03-25T00:09:04;5.00;99.90
15131;DHT22;7666;50.920;4.628;2024-03-25T00:11:53;5.00;99.90
15131;DHT22;7666;50.920;4.628;2024-03-25T00:14:40;5.00;99.90
15131;DHT22;7666;50.920;4.628;2024-03-25T00:17:26;5.00;99.90
15131;DHT22;7666;50.920;4.628;2024-03-25T00:20:13;5.00;99.90
15131;DHT22;7666;50.920;4.628;2024-03-25T00:23:00;5.00;99.90
15131;DHT22;7666;50.920;4.628;2024-03-25T00:25:46;5.00;99.90
15131;DHT22;7666;50.920;4.628;2024-03-25T00:28:32;5.00;99.90
15131;DHT22;7666;50.920;4.628;2024-03-25T00:31:19;5.00;99.90
15131;DHT22;7666;50.920;4.628;2024-03-25T00:34:05;5.00;99.90
15131;DHT22;7666;50.920;4.628;2024-03-25T00:36:51;5.00;99.90
15131;DHT22;7666;50.920;4.628;2024-03-25T00:39:38;4.90;99.90
15131;DHT22;7666;50.920;4.628;2024-03-25T00:42:24;4.90;99.90
15131;DHT22;7666;50.920;4.628;2024-03-25T00:45:10;4.90;99.90
15131;DHT22;7666;50.920;4.628;2024-03-25T00:47:59;4.90;99.90
15131;DHT22;7666;50.920;4.628;2024-03-25T00:50:45;4.90;99.90
15131;DHT22;7666;50.920;4.628;2024-03-25T00:53:31;4.90;99.90
15131;DHT22;7666;50.920;4.628;2024-03-25T00:56:17;4.90;99.90
15131;DHT22;7666;50.920;4.628;2024-03-25T00:59:03;4.90;99.90
15131;DHT22;7666;50.920;4.628;2024-03-25T01:01:49;4.80;99.90
15131;DHT22;7666;50.920;4.628;2024-03-25T01:04:35;4.80;99.90
15131;DHT22;7666;50.920;4.628;2024-03-25T01:07:21;4.80;99.90
15131;DHT22;7666;50.920;4.628;2024-03-25T01:10:07;4.80;99.90
15131;DHT22;7666;50.920;4.628;2024-03-25T01:12:53;4.70;99.90
15131;DHT22;7666;50.920;4.628;2024-03-25T01:15:39;4.70;99.90
15131;DHT22;7666;50.920;4.628;2024-03-25T01:18:25;4.70;99.90
15131;DHT22;7666;50.920;4.628;2024-03-25T01:21:11;4.70;99.90
15131;DHT22;7666;50.920;4.628;2024-03-25T01:23:57;4.80;99.90
15131;DHT22;7666;50.920;4.628;2024-03-25T01:26:43;4.80;99.90
15131;DHT22;7666;50.920;4.628;2024-03-25T01:29:29;4.70;99.90
15131;DHT22;7666;50.920;4.628;2024-03-25T01:32:15;4.70;99.90
15131;DHT22;7666;50.920;4.628;2024-03-25T01:35:01;4.70;99.90
15131;DHT22;7666;50.920;4.628;2024-03-25T01:37:47;4.60;99.90
15131;DHT22;7666;50.920;4.628;2024-03-25T01:40:33;4.60;99.90
15131;DHT22;7666;50.920;4.628;2024-03-25T01:43:19;4.70;99.90
15131;DHT22;7666;50.920;4.628;2024-03-25T01:46:06;4.70;99.90
15131;DHT22;7666;50.920;4.628;2024-03-25T01:48:53;4.70;99.90
15131;DHT22;7666;50.920;4.628;2024-03-25T01:51:40;4.70;99.90
15131;DHT22;7666;50.920;4.628;2024-03-25T01:54:27;4.70;99.90
15131;DHT22;7666;50.920;4.628;2024-03-25T01:57:13;4.60;99.90
15131;DHT22;7666;50.920;4.628;2024-03-25T01:59:59;4.60;99.90
15131;DHT22;7666;50.920;4.628;2024-03-25T02:02:46;4.50;99.90
15131;DHT22;7666;50.920;4.628;2024-03-25T02:05:34;4.40;99.90
15131;DHT22;7666;50.920;4.628;2024-03-25T02:08:21;4.30;99.90
15131;DHT22;7666;50.920;4.628;2024-03-25T02:11:10;4.30;99.90
15131;DHT22;7666;50.920;4.628;2024-03-25T02:13:56;4.30;99.90
15131;DHT22;7666;50.920;4.628;2024-03-25T02:16:42;4.30;99.90
15131;DHT22;7666;50.920;4.628;2024-03-25T02:19:30;4.30;99.90
15131;DHT22;7666;50.920;4.628;2024-03-25T02:22:17;4.20;99.90
15131;DHT22;7666;50.920;4.628;2024-03-25T02:25:08;4.40;99.90
15131;DHT22;7666;50.920;4.628;2024-03-25T02:27:54;4.10;99.90
15131;DHT22;7666;50.920;4.628;2024-03-25T02:30:40;4.10;99.90
15131;DHT22;7666;50.920;4.628;2024-03-25T02:33:26;4.00;99.90
15131;DHT22;7666;50.920;4.628;2024-03-25T02:36:12;4.00;99.90
15131;DHT22;7666;50.920;4.628;2024-03-25T02:38:59;3.90;99.90
15131;DHT22;7666;50.920;4.628;2024-03-25T02:41:46;3.80;99.90
15131;DHT22;7666;50.920;4.628;2024-03-25T02:44:32;3.80;99.90
15131;DHT22;7666;50.920;4.628;2024-03-25T02:47:18;3.80;99.90
15131;DHT22;7666;50.920;4.628;2024-03-25T02:50:05;3.80;99.90
15131;DHT22;7666;50.920;4.628;2024-03-25T02:52:52;3.70;99.90
15131;DHT22;7666;50.920;4.628;2024-03-25T02:55:38;3.70;99.90
15131;DHT22;7666;50.920;4.628;2024-03-25T02:58:24;3.70;99.90
15131;DHT22;7666;50.920;4.628;2024-03-25T03:01:10;3.60;99.90
15131;DHT22;7666;50.920;4.628;2024-03-25T03:03:56;3.60;99.90
15131;DHT22;7666;50.920;4.628;2024-03-25T03:06:42;3.60;99.90
15131;DHT22;7666;50.920;4.628;2024-03-25T03:09:28;3.50;99.90
15131;DHT22;7666;50.920;4.628;2024-03-25T03:12:14;3.50;99.90
15131;DHT22;7666;50.920;4.628;2024-03-25T03:15:00;3.60;99.90
15131;DHT22;7666;50.920;4.628;2024-03-25T03:17:46;3.50;99.90
15131;DHT22;7666;50.920;4.628;2024-03-25T03:20:32;3.60;99.90
15131;DHT22;7666;50.920;4.628;2024-03-25T03:23:18;3.60;99.90
15131;DHT22;7666;50.920;4.628;2024-03-25T03:26:04;3.60;99.90
15131;DHT22;7666;50.920;4.628;2024-03-25T03:28:50;3.50;99.90
15131;DHT22;7666;50.920;4.628;2024-03-25T03:31:36;3.50;99.90
15131;DHT22;7666;50.920;4.628;2024-03-25T03:34:22;3.50;99.90
15131;DHT22;7666;50.920;4.628;2024-03-25T03:37:08;3.40;99.90
15131;DHT22;7666;50.920;4.628;2024-03-25T03:39:53;3.40;99.90
15131;DHT22;7666;50.920;4.628;2024-03-25T03:42:39;3.50;99.90
15131;DHT22;7666;50.920;4.628;2024-03-25T03:45:25;3.50;99.90
15131;DHT22;7666;50.920;4.628;2024-03-25T03:48:11;3.50;99.90
15131;DHT22;7666;50.920;4.628;2024-03-25T03:50:57;3.50;99.90
15131;DHT22;7666;50.920;4.628;2024-03-25T03:53:43;3.50;99.90
15131;DHT22;7666;50.920;4.628;2024-03-25T03:56:29;3.60;99.90
15131;DHT22;7666;50.920;4.628;2024-03-25T03:59:15;3.50;99.90
15131;DHT22;7666;50.920;4.628;2024-03-25T04:02:01;3.50;99.90
15131;DHT22;7666;50.920;4.628;2024-03-25T04:04:47;3.60;99.90
15131;DHT22;7666;50.920;4.628;2024-03-25T04:07:33;3.70;99.90
15131;DHT22;7666;50.920;4.628;2024-03-25T04:10:19;3.70;99.90
15131;DHT22;7666;50.920;4.628;2024-03-25T04:13:05;3.70;99.90
15131;DHT22;7666;50.920;4.628;2024-03-25T04:15:51;3.70;99.90
15131;DHT22;7666;50.920;4.628;2024-03-25T04:18:38;3.80;99.90
15131;DHT22;7666;50.920;4.628;2024-03-25T04:21:26;3.90;99.90
15131;DHT22;7666;50.920;4.628;2024-03-25T04:24:12;4.00;99.90
15131;DHT22;7666;50.920;4.628;2024-03-25T04:26:58;3.90;99.90
15131;DHT22;7666;50.920;4.628;2024-03-25T04:29:43;3.90;99.90
15131;DHT22;7666;50.920;4.628;2024-03-25T04:32:29;3.90;99.90
15131;DHT22;7666;50.920;4.628;2024-03-25T04:35:15;4.00;99.90
15131;DHT22;7666;50.920;4.628;2024-03-25T04:38:01;4.00;99.90
15131;DHT22;7666;50.920;4.628;2024-03-25T04:40:48;3.90;99.90
15131;DHT22;7666;50.920;4.628;2024-03-25T04:43:34;3.80;99.90
15131;DHT22;7666;50.920;4.628;2024-03-25T04:46:20;3.80;99.90
15131;DHT22;7666;50.920;4.628;2024-03-25T04:49:06;3.70;99.90
15131;DHT22;7666;50.920;4.628;2024-03-25T04:51:52;3.50;99.90
15131;DHT22;7666;50.920;4.628;2024-03-25T04:54:39;3.40;99.90
15131;DHT22;7666;50.920;4.628;2024-03-25T04:57:25;3.30;99.90
15131;DHT22;7666;50.920;4.628;2024-03-25T05:00:11;3.40;99.90
15131;DHT22;7666;50.920;4.628;2024-03-25T05:02:58;3.40;99.90
15131;DHT22;7666;50.920;4.628;2024-03-25T05:05:44;3.40;99.90
15131;DHT22;7666;50.920;4.628;2024-03-25T05:08:29;3.40;99.90
15131;DHT22;7666;50.920;4.628;2024-03-25T05:11:15;3.30;99.90
15131;DHT22;7666;50.920;4.628;2024-03-25T05:14:01;3.10;99.90
15131;DHT22;7666;50.920;4.628;2024-03-25T05:16:47;3.00;99.90
15131;DHT22;7666;50.920;4.628;2024-03-25T05:19:35;3.10;99.90
15131;DHT22;7666;50.920;4.628;2024-03-25T05:22:21;3.00;99.90
15131;DHT22;7666;50.920;4.628;2024-03-25T05:25:07;3.00;99.90
15131;DHT22;7666;50.920;4.628;2024-03-25T05:27:53;3.00;99.90
15131;DHT22;7666;50.920;4.628;2024-03-25T05:30:39;3.00;99.90
15131;DHT22;7666;50.920;4.628;2024-03-25T05:33:25;3.10;99.90
15131;DHT22;7666;50.920;4.628;2024-03-25T05:36:11;3.20;99.90
15131;DHT22;7666;50.920;4.628;2024-03-25T05:38:57;3.30;99.90
15131;DHT22;7666;50.920;4.628;2024-03-25T05:41:43;3.40;99.90
15131;DHT22;7666;50.920;4.628;2024-03-25T05:44:29;3.50;99.90
15131;DHT22;7666;50.920;4.628;2024-03-25T05:47:15;3.70;99.90
15131;DHT22;7666;50.920;4.628;2024-03-25T05:50:01;4.00;99.90
15131;DHT22;7666;50.920;4.628;2024-03-25T05:52:49;4.50;99.90
15131;DHT22;7666;50.920;4.628;2024-03-25T05:55:35;5.00;99.90
15131;DHT22;7666;50.920;4.628;2024-03-25T05:58:22;5.60;99.90
15131;DHT22;7666;50.920;4.628;2024-03-25T06:01:08;6.10;99.90
15131;DHT22;7666;50.920;4.628;2024-03-25T06:03:54;6.60;99.90
15131;DHT22;7666;50.920;4.628;2024-03-25T06:06:40;7.10;99.90
15131;DHT22;7666;50.920;4.628;2024-03-25T06:09:26;7.60;99.90
15131;DHT22;7666;50.920;4.628;2024-03-25T06:12:12;8.10;99.90
15131;DHT22;7666;50.920;4.628;2024-03-25T06:14:58;8.70;99.90
15131;DHT22;7666;50.920;4.628;2024-03-25T06:17:44;9.20;99.90
15131;DHT22;7666;50.920;4.628;2024-03-25T06:20:30;9.60;99.90
15131;DHT22;7666;50.920;4.628;2024-03-25T06:23:26;9.50;99.90
15131;DHT22;7666;50.920;4.628;2024-03-25T06:26:13;9.10;99.90
15131;DHT22;7666;50.920;4.628;2024-03-25T06:28:59;8.70;99.90
15131;DHT22;7666;50.920;4.628;2024-03-25T06:31:44;8.40;99.90
15131;DHT22;7666;50.920;4.628;2024-03-25T06:34:49;8.40;99.90
15131;DHT22;7666;50.920;4.628;2024-03-25T06:37:35;8.40;99.90
15131;DHT22;7666;50.920;4.628;2024-03-25T06:40:21;8.20;99.90
15131;DHT22;7666;50.920;4.628;2024-03-25T06:43:08;8.00;99.90
15131;DHT22;7666;50.920;4.628;2024-03-25T06:45:53;7.80;99.90
15131;DHT22;7666;50.920;4.628;2024-03-25T06:48:40;7.60;99.90
15131;DHT22;7666;50.920;4.628;2024-03-25T06:51:26;7.50;99.90
15131;DHT22;7666;50.920;4.628;2024-03-25T06:54:12;7.40;99.90
15131;DHT22;7666;50.920;4.628;2024-03-25T06:56:58;7.40;99.90
15131;DHT22;7666;50.920;4.628;2024-03-25T06:59:44;7.30;99.90
15131;DHT22;7666;50.920;4.628;2024-03-25T07:02:30;7.30;99.90
15131;DHT22;7666;50.920;4.628;2024-03-25T07:05:16;7.30;99.90
15131;DHT22;7666;50.920;4.628;2024-03-25T07:08:02;7.20;99.90
15131;DHT22;7666;50.920;4.628;2024-03-25T07:10:48;7.30;99.90
15131;DHT22;7666;50.920;4.628;2024-03-25T07:13:34;7.40;99.90
15131;DHT22;7666;50.920;4.628;2024-03-25T07:16:20;7.60;99.90
15131;DHT22;7666;50.920;4.628;2024-03-25T07:19:06;7.70;99.90
15131;DHT22;7666;50.920;4.628;2024-03-25T07:21:52;8.00;99.90
15131;DHT22;7666;50.920;4.628;2024-03-25T07:24:38;8.30;99.90
15131;DHT22;7666;50.920;4.628;2024-03-25T07:27:24;8.50;99.90
15131;DHT22;7666;50.920;4.628;2024-03-25T07:30:10;8.70;99.90
15131;DHT22;7666;50.920;4.628;2024-03-25T07:32:57;9.10;99.90
15131;DHT22;7666;50.920;4.628;2024-03-25T07:35:45;9.80;99.90
15131;DHT22;7666;50.920;4.628;2024-03-25T07:38:31;10.60;99.90
15131;DHT22;7666;50.920;4.628;2024-03-25T07:41:17;11.10;99.90
15131;DHT22;7666;50.920;4.628;2024-03-25T07:44:03;11.30;99.90
15131;DHT22;7666;50.920;4.628;2024-03-25T07:46:50;11.40;99.90
15131;DHT22;7666;50.920;4.628;2024-03-25T07:49:36;11.10;99.90
15131;DHT22;7666;50.920;4.628;2024-03-25T07:52:22;10.80;99.90
15131;DHT22;7666;50.920;4.628;2024-03-25T07:55:08;10.60;99.90
15131;DHT22;7666;50.920;4.628;2024-03-25T07:57:54;10.40;99.90
15131;DHT22;7666;50.920;4.628;2024-03-25T08:00:40;10.00;99.90
15131;DHT22;7666;50.920;4.628;2024-03-25T08:03:26;10.00;99.90
15131;DHT22;7666;50.920;4.628;2024-03-25T08:06:12;10.00;99.90
15131;DHT22;7666;50.920;4.628;2024-03-25T08:08:58;10.00;99.90
15131;DHT22;7666;50.920;4.628;2024-03-25T08:11:43;10.00;99.90
15131;DHT22;7666;50.920;4.628;2024-03-25T08:14:29;10.10;99.90
15131;DHT22;7666;50.920;4.628;2024-03-25T08:17:15;10.00;99.90
15131;DHT22;7666;50.920;4.628;2024-03-25T08:20:01;10.10;99.90
15131;DHT22;7666;50.920;4.628;2024-03-25T08:22:49;10.10;99.90
15131;DHT22;7666;50.920;4.628;2024-03-25T08:25:35;10.00;99.90
15131;DHT22;7666;50.920;4.628;2024-03-25T08:28:21;10.10;99.90
15131;DHT22;7666;50.920;4.628;2024-03-25T08:31:07;10.20;99.90
15131;DHT22;7666;50.920;4.628;2024-03-25T08:33:52;10.40;99.90
15131;DHT22;7666;50.920;4.628;2024-03-25T08:36:38;10.40;99.90
15131;DHT22;7666;50.920;4.628;2024-03-25T08:39:25;10.50;99.90
15131;DHT22;7666;50.920;4.628;2024-03-25T08:42:11;10.60;99.90
15131;DHT22;7666;50.920;4.628;2024-03-25T08:44:57;10.90;99.90
15131;DHT22;7666;50.920;4.628;2024-03-25T08:47:45;11.00;99.90
15131;DHT22;7666;50.920;4.628;2024-03-25T08:50:31;11.00;99.90
15131;DHT22;7666;50.920;4.628;2024-03-25T08:53:17;11.00;99.90
15131;DHT22;7666;50.920;4.628;2024-03-25T08:56:03;10.80;99.90
15131;DHT22;7666;50.920;4.628;2024-03-25T08:58:49;10.80;99.90
15131;DHT22;7666;50.920;4.628;2024-03-25T09:01:35;10.90;99.90
15131;DHT22;7666;50.920;4.628;2024-03-25T09:04:22;10.90;99.90
15131;DHT22;7666;50.920;4.628;2024-03-25T09:07:08;11.00;99.90
15131;DHT22;7666;50.920;4.628;2024-03-25T09:09:54;11.20;99.90
15131;DHT22;7666;50.920;4.628;2024-03-25T09:12:59;11.10;99.90
15131;DHT22;7666;50.920;4.628;2024-03-25T09:15:45;11.20;99.90
15131;DHT22;7666;50.920;4.628;2024-03-25T09:18:31;11.50;99.90
15131;DHT22;7666;50.920;4.628;2024-03-25T09:21:16;11.60;99.90
15131;DHT22;7666;50.920;4.628;2024-03-25T09:24:02;11.80;99.90
15131;DHT22;7666;50.920;4.628;2024-03-25T09:26:51;11.90;99.90
15131;DHT22;7666;50.920;4.628;2024-03-25T09:29:38;11.90;99.90
15131;DHT22;7666;50.920;4.628;2024-03-25T09:32:24;11.90;99.90
15131;DHT22;7666;50.920;4.628;2024-03-25T09:35:11;11.70;99.90
15131;DHT22;7666;50.920;4.628;2024-03-25T09:37:57;11.80;99.90
15131;DHT22;7666;50.920;4.628;2024-03-25T09:40:43;11.90;99.90
15131;DHT22;7666;50.920;4.628;2024-03-25T09:43:42;12.00;99.90
15131;DHT22;7666;50.920;4.628;2024-03-25T09:46:28;12.00;99.90
15131;DHT22;7666;50.920;4.628;2024-03-25T09:49:14;12.10;99.90
15131;DHT22;7666;50.920;4.628;2024-03-25T09:52:01;12.40;99.90
15131;DHT22;7666;50.920;4.628;2024-03-25T09:54:48;12.50;99.90
15131;DHT22;7666;50.920;4.628;2024-03-25T09:57:34;12.50;99.90
15131;DHT22;7666;50.920;4.628;2024-03-25T10:00:21;12.60;99.90
15131;DHT22;7666;50.920;4.628;2024-03-25T10:03:07;12.80;99.90
15131;DHT22;7666;50.920;4.628;2024-03-25T10:05:54;13.00;99.90
15131;DHT22;7666;50.920;4.628;2024-03-25T10:08:40;12.80;99.90
15131;DHT22;7666;50.920;4.628;2024-03-25T10:11:26;12.70;99.90
15131;DHT22;7666;50.920;4.628;2024-03-25T10:14:15;12.60;99.90
15131;DHT22;7666;50.920;4.628;2024-03-25T10:17:02;12.80;99.90
15131;DHT22;7666;50.920;4.628;2024-03-25T10:19:48;13.00;99.90
15131;DHT22;7666;50.920;4.628;2024-03-25T10:22:44;13.00;99.90
15131;DHT22;7666;50.920;4.628;2024-03-25T10:25:31;13.20;99.90
15131;DHT22;7666;50.920;4.628;2024-03-25T10:28:17;13.10;99.90
15131;DHT22;7666;50.920;4.628;2024-03-25T10:31:03;13.30;99.90
15131;DHT22;7666;50.920;4.628;2024-03-25T10:33:49;13.30;99.90
15131;DHT22;7666;50.920;4.628;2024-03-25T10:36:36;13.10;99.90
15131;DHT22;7666;50.920;4.628;2024-03-25T10:39:26;13.10;99.90
15131;DHT22;7666;50.920;4.628;2024-03-25T10:42:15;13.00;99.90
15131;DHT22;7666;50.920;4.628;2024-03-25T10:45:04;13.20;99.90
15131;DHT22;7666;50.920;4.628;2024-03-25T10:47:51;13.60;99.90
15131;DHT22;7666;50.920;4.628;2024-03-25T10:50:38;13.80;99.90
15131;DHT22;7666;50.920;4.628;2024-03-25T10:53:27;13.80;99.90
15131;DHT22;7666;50.920;4.628;2024-03-25T10:56:14;13.90;99.90
15131;DHT22;7666;50.920;4.628;2024-03-25T10:59:01;14.00;99.90
15131;DHT22;7666;50.920;4.628;2024-03-25T11:01:48;14.30;99.90
15131;DHT22;7666;50.920;4.628;2024-03-25T11:04:34;14.40;99.90
15131;DHT22;7666;50.920;4.628;2024-03-25T11:07:30;13.90;99.90
15131;DHT22;7666;50.920;4.628;2024-03-25T11:10:16;13.40;99.90
15131;DHT22;7666;50.920;4.628;2024-03-25T11:13:02;13.40;99.90
15131;DHT22;7666;50.920;4.628;2024-03-25T11:15:49;13.80;99.90
15131;DHT22;7666;50.920;4.628;2024-03-25T11:18:35;14.30;99.90
15131;DHT22;7666;50.920;4.628;2024-03-25T11:21:25;14.30;99.90
15131;DHT22;7666;50.920;4.628;2024-03-25T11:24:11;14.30;99.90
15131;DHT22;7666;50.920;4.628;2024-03-25T11:26:57;14.30;99.90
15131;DHT22;7666;50.920;4.628;2024-03-25T11:29:44;14.60;99.90
15131;DHT22;7666;50.920;4.628;2024-03-25T11:32:30;14.60;99.90
15131;DHT22;7666;50.920;4.628;2024-03-25T11:35:27;14.90;99.90
15131;DHT22;7666;50.920;4.628;2024-03-25T11:38:14;15.10;99.90
15131;DHT22;7666;50.920;4.628;2024-03-25T11:41:00;14.90;99.90
15131;DHT22;7666;50.920;4.628;2024-03-25T11:43:46;14.50;99.90
15131;DHT22;7666;50.920;4.628;2024-03-25T11:46:38;14.20;99.90
15131;DHT22;7666;50.920;4.628;2024-03-25T11:49:24;14.40;99.90
15131;DHT22;7666;50.920;4.628;2024-03-25T11:52:10;14.30;99.90
15131;DHT22;7666;50.920;4.628;2024-03-25T11:54:56;13.90;99.90
15131;DHT22;7666;50.920;4.628;2024-03-25T11:57:43;13.90;99.90
15131;DHT22;7666;50.920;4.628;2024-03-25T12:00:29;14.00;99.90
15131;DHT22;7666;50.920;4.628;2024-03-25T12:03:15;14.10;99.90
15131;DHT22;7666;50.920;4.628;2024-03-25T12:06:04;13.80;99.90
15131;DHT22;7666;50.920;4.628;2024-03-25T12:08:50;13.60;99.90
15131;DHT22;7666;50.920;4.628;2024-03-25T12:11:55;13.60;99.90
15131;DHT22;7666;50.920;4.628;2024-03-25T12:14:42;13.70;99.90
15131;DHT22;7666;50.920;4.628;2024-03-25T12:17:28;13.80;99.90
15131;DHT22;7666;50.920;4.628;2024-03-25T12:20:14;14.10;99.90
15131;DHT22;7666;50.920;4.628;2024-03-25T12:23:02;14.30;99.90
15131;DHT22;7666;50.920;4.628;2024-03-25T12:25:49;14.60;99.90
15131;DHT22;7666;50.920;4.628;2024-03-25T12:28:35;14.70;99.90
15131;DHT22;7666;50.920;4.628;2024-03-25T12:31:23;14.40;99.90
15131;DHT22;7666;50.920;4.628;2024-03-25T12:34:12;13.90;99.90
15131;DHT22;7666;50.920;4.628;2024-03-25T12:37:03;13.70;99.90
15131;DHT22;7666;50.920;4.628;2024-03-25T12:39:50;13.80;99.90
15131;DHT22;7666;50.920;4.628;2024-03-25T12:42:37;14.00;99.90
15131;DHT22;7666;50.920;4.628;2024-03-25T12:45:24;14.00;99.90
15131;DHT22;7666;50.920;4.628;2024-03-25T12:48:10;13.90;99.90
15131;DHT22;7666;50.920;4.628;2024-03-25T12:50:57;14.00;99.90
15131;DHT22;7666;50.920;4.628;2024-03-25T12:53:42;13.80;99.90
15131;DHT22;7666;50.920;4.628;2024-03-25T12:56:28;13.80;99.90
15131;DHT22;7666;50.920;4.628;2024-03-25T12:59:14;13.60;99.90
15131;DHT22;7666;50.920;4.628;2024-03-25T13:02:00;13.60;99.90
15131;DHT22;7666;50.920;4.628;2024-03-25T13:04:46;14.00;99.90
15131;DHT22;7666;50.920;4.628;2024-03-25T13:07:32;14.10;99.90
15131;DHT22;7666;50.920;4.628;2024-03-25T13:10:18;14.20;99.90
15131;DHT22;7666;50.920;4.628;2024-03-25T13:13:05;14.20;99.90
15131;DHT22;7666;50.920;4.628;2024-03-25T13:15:51;14.00;99.90
15131;DHT22;7666;50.920;4.628;2024-03-25T13:18:37;13.70;99.90
15131;DHT22;7666;50.920;4.628;2024-03-25T13:21:23;13.60;99.90
15131;DHT22;7666;50.920;4.628;2024-03-25T13:24:10;13.60;99.90
15131;DHT22;7666;50.920;4.628;2024-03-25T13:26:56;13.80;99.90
15131;DHT22;7666;50.920;4.628;2024-03-25T13:29:42;13.90;99.90
15131;DHT22;7666;50.920;4.628;2024-03-25T13:32:28;13.70;99.90
15131;DHT22;7666;50.920;4.628;2024-03-25T13:35:14;13.40;99.90
15131;DHT22;7666;50.920;4.628;2024-03-25T13:38:00;13.30;99.90
15131;DHT22;7666;50.920;4.628;2024-03-25T13:40:46;13.20;99.90
15131;DHT22;7666;50.920;4.628;2024-03-25T13:43:32;13.20;99.90
15131;DHT22;7666;50.920;4.628;2024-03-25T13:46:18;13.30;99.90
15131;DHT22;7666;50.920;4.628;2024-03-25T13:49:04;13.50;99.90
15131;DHT22;7666;50.920;4.628;2024-03-25T13:51:55;13.60;99.90
15131;DHT22;7666;50.920;4.628;2024-03-25T13:54:42;13.40;99.90
15131;DHT22;7666;50.920;4.628;2024-03-25T13:57:28;13.30;99.90
15131;DHT22;7666;50.920;4.628;2024-03-25T14:00:14;13.40;99.90
15131;DHT22;7666;50.920;4.628;2024-03-25T14:03:01;13.60;99.90
15131;DHT22;7666;50.920;4.628;2024-03-25T14:05:47;13.60;99.90
15131;DHT22;7666;50.920;4.628;2024-03-25T14:08:33;13.60;99.90
15131;DHT22;7666;50.920;4.628;2024-03-25T14:11:19;13.70;99.90
15131;DHT22;7666;50.920;4.628;2024-03-25T14:14:05;13.70;99.90
15131;DHT22;7666;50.920;4.628;2024-03-25T14:16:51;13.50;99.90
15131;DHT22;7666;50.920;4.628;2024-03-25T14:19:37;13.30;99.90
15131;DHT22;7666;50.920;4.628;2024-03-25T14:22:23;13.40;99.90
15131;DHT22;7666;50.920;4.628;2024-03-25T14:25:10;13.50;99.90
15131;DHT22;7666;50.920;4.628;2024-03-25T14:27:56;13.50;99.90
15131;DHT22;7666;50.920;4.628;2024-03-25T14:30:43;13.50;99.90
15131;DHT22;7666;50.920;4.628;2024-03-25T14:33:29;13.60;99.90
15131;DHT22;7666;50.920;4.628;2024-03-25T14:36:15;13.60;99.90
15131;DHT22;7666;50.920;4.628;2024-03-25T14:39:01;13.70;99.90
15131;DHT22;7666;50.920;4.628;2024-03-25T14:41:47;13.90;99.90
15131;DHT22;7666;50.920;4.628;2024-03-25T14:44:33;13.90;99.90
15131;DHT22;7666;50.920;4.628;2024-03-25T14:47:19;13.70;99.90
15131;DHT22;7666;50.920;4.628;2024-03-25T14:50:05;13.40;99.90
15131;DHT22;7666;50.920;4.628;2024-03-25T14:52:51;13.30;99.90
15131;DHT22;7666;50.920;4.628;2024-03-25T14:55:37;13.30;99.90
15131;DHT22;7666;50.920;4.628;2024-03-25T14:58:23;13.30;99.90
15131;DHT22;7666;50.920;4.628;2024-03-25T15:01:09;13.40;99.90
15131;DHT22;7666;50.920;4.628;2024-03-25T15:03:55;13.50;99.90
15131;DHT22;7666;50.920;4.628;2024-03-25T15:06:41;13.40;99.90
15131;DHT22;7666;50.920;4.628;2024-03-25T15:09:27;13.30;99.90
15131;DHT22;7666;50.920;4.628;2024-03-25T15:12:13;13.30;99.90
15131;DHT22;7666;50.920;4.628;2024-03-25T15:15:03;13.20;99.90
15131;DHT22;7666;50.920;4.628;2024-03-25T15:17:52;13.20;99.90
15131;DHT22;7666;50.920;4.628;2024-03-25T15:20:38;13.30;99.90
15131;DHT22;7666;50.920;4.628;2024-03-25T15:23:24;13.30;99.90
15131;DHT22;7666;50.920;4.628;2024-03-25T15:26:10;13.30;99.90
15131;DHT22;7666;50.920;4.628;2024-03-25T15:28:56;13.30;99.90
15131;DHT22;7666;50.920;4.628;2024-03-25T15:31:42;13.30;99.90
15131;DHT22;7666;50.920;4.628;2024-03-25T15:34:28;13.20;99.90
15131;DHT22;7666;50.920;4.628;2024-03-25T15:37:13;13.30;99.90
15131;DHT22;7666;50.920;4.628;2024-03-25T15:40:01;13.20;99.90
15131;DHT22;7666;50.920;4.628;2024-03-25T15:42:47;13.20;99.90
15131;DHT22;7666;50.920;4.628;2024-03-25T15:45:33;13.20;99.90
15131;DHT22;7666;50.920;4.628;2024-03-25T15:48:19;13.20;99.90
15131;DHT22;7666;50.920;4.628;2024-03-25T15:51:05;13.20;99.90
15131;DHT22;7666;50.920;4.628;2024-03-25T15:53:51;13.00;99.90
15131;DHT22;7666;50.920;4.628;2024-03-25T15:56:37;12.90;99.90
15131;DHT22;7666;50.920;4.628;2024-03-25T15:59:23;12.80;99.90
15131;DHT22;7666;50.920;4.628;2024-03-25T16:02:09;12.70;99.90
15131;DHT22;7666;50.920;4.628;2024-03-25T16:04:55;12.60;99.90
15131;DHT22;7666;50.920;4.628;2024-03-25T16:07:41;12.60;99.90
15131;DHT22;7666;50.920;4.628;2024-03-25T16:10:33;12.60;99.90
15131;DHT22;7666;50.920;4.628;2024-03-25T16:13:20;12.70;99.90
15131;DHT22;7666;50.920;4.628;2024-03-25T16:16:07;12.70;99.90
15131;DHT22;7666;50.920;4.628;2024-03-25T16:18:54;12.70;99.90
15131;DHT22;7666;50.920;4.628;2024-03-25T16:21:40;12.60;99.90
15131;DHT22;7666;50.920;4.628;2024-03-25T16:24:26;12.70;99.90
15131;DHT22;7666;50.920;4.628;2024-03-25T16:27:12;12.70;99.90
15131;DHT22;7666;50.920;4.628;2024-03-25T16:29:58;12.60;99.90
15131;DHT22;7666;50.920;4.628;2024-03-25T16:32:44;12.60;99.90
15131;DHT22;7666;50.920;4.628;2024-03-25T16:35:30;12.60;99.90
15131;DHT22;7666;50.920;4.628;2024-03-25T16:38:16;12.50;99.90
15131;DHT22;7666;50.920;4.628;2024-03-25T16:41:02;12.50;99.90
15131;DHT22;7666;50.920;4.628;2024-03-25T16:43:49;12.50;99.90
15131;DHT22;7666;50.920;4.628;2024-03-25T16:46:35;12.40;99.90
15131;DHT22;7666;50.920;4.628;2024-03-25T16:49:24;12.40;99.90
15131;DHT22;7666;50.920;4.628;2024-03-25T16:52:10;12.40;99.90
15131;DHT22;7666;50.920;4.628;2024-03-25T16:54:56;12.30;99.90
15131;DHT22;7666;50.920;4.628;2024-03-25T16:57:42;12.20;99.90
15131;DHT22;7666;50.920;4.628;2024-03-25T17:00:28;12.20;99.90
15131;DHT22;7666;50.920;4.628;2024-03-25T17:03:14;12.20;99.90
15131;DHT22;7666;50.920;4.628;2024-03-25T17:05:59;12.20;99.90
15131;DHT22;7666;50.920;4.628;2024-03-25T17:08:45;12.10;99.90
15131;DHT22;7666;50.920;4.628;2024-03-25T17:11:31;12.10;99.90
15131;DHT22;7666;50.920;4.628;2024-03-25T17:14:18;12.10;99.90
15131;DHT22;7666;50.920;4.628;2024-03-25T17:17:04;12.00;99.90
15131;DHT22;7666;50.920;4.628;2024-03-25T17:19:50;11.90;99.90
15131;DHT22;7666;50.920;4.628;2024-03-25T17:22:37;11.90;99.90
15131;DHT22;7666;50.920;4.628;2024-03-25T17:25:23;11.80;99.90
15131;DHT22;7666;50.920;4.628;2024-03-25T17:28:09;11.70;99.90
15131;DHT22;7666;50.920;4.628;2024-03-25T17:30:55;11.60;99.90
15131;DHT22;7666;50.920;4.628;2024-03-25T17:33:42;11.50;99.90
15131;DHT22;7666;50.920;4.628;2024-03-25T17:36:28;11.40;99.90
15131;DHT22;7666;50.920;4.628;2024-03-25T17:39:14;11.30;99.90
15131;DHT22;7666;50.920;4.628;2024-03-25T17:42:01;11.20;99.90
15131;DHT22;7666;50.920;4.628;2024-03-25T17:44:49;11.10;99.90
15131;DHT22;7666;50.920;4.628;2024-03-25T17:47:35;11.00;99.90
15131;DHT22;7666;50.920;4.628;2024-03-25T17:50:21;10.90;99.90
15131;DHT22;7666;50.920;4.628;2024-03-25T17:53:08;10.80;99.90
15131;DHT22;7666;50.920;4.628;2024-03-25T17:55:54;10.80;99.90